createdAt,value
2022-10-31T00:01:13.596Z,10.13
2022-10-31T00:06:19.159Z,9.23
2022-10-31T00:11:22.068Z,11.23
2022-10-31T00:16:26.297Z,9.65
2022-10-31T00:21:31.595Z,7.70
2022-10-31T00:26:34.410Z,10.23
2022-10-31T00:31:37.060Z,10.35
2022-10-31T00:36:41.103Z,8.10
2022-10-31T00:41:43.814Z,10.18
2022-10-31T00:46:46.491Z,14.10
2022-10-31T00:51:50.419Z,10.90
2022-10-31T00:56:53.040Z,10.35
2022-10-31T01:01:55.853Z,11.52
2022-10-31T01:06:59.912Z,10.90
2022-10-31T01:12:02.581Z,15.40
2022-10-31T01:17:05.184Z,8.35
2022-10-31T01:22:09.183Z,11.23
2022-10-31T01:27:11.766Z,12.68
2022-10-31T01:32:14.311Z,10.55
2022-10-31T01:37:18.307Z,9.00
2022-10-31T01:42:22.987Z,12.52
2022-10-31T01:47:40.887Z,9.05
2022-10-31T01:52:48.119Z,12.80
2022-10-31T01:57:55.774Z,12.32
2022-10-31T02:02:58.757Z,17.67
2022-10-31T02:08:07.483Z,9.10
2022-10-31T02:13:10.795Z,9.90
2022-10-31T02:18:13.505Z,10.80
2022-10-31T02:23:45.194Z,16.65
2022-10-31T02:29:12.470Z,12.75
2022-10-31T02:34:21.468Z,9.57
2022-10-31T02:39:28.396Z,11.35
2022-10-31T02:44:37.645Z,8.27
2022-10-31T02:49:47.734Z,10.40
2022-10-31T02:54:50.722Z,8.35
2022-10-31T02:59:57.150Z,10.18
2022-10-31T03:05:18.671Z,12.93
2022-10-31T03:10:33.514Z,13.48
2022-10-31T03:15:39.398Z,12.35
2022-10-31T03:20:47.807Z,9.68
2022-10-31T03:25:51.216Z,7.22
2022-10-31T03:30:55.941Z,9.00
2022-10-31T03:36:02.451Z,10.23
2022-10-31T03:41:07.899Z,12.32
2022-10-31T03:46:10.936Z,13.75
2022-10-31T03:51:21.682Z,10.38
2022-10-31T03:56:29.505Z,9.75
2022-10-31T04:01:36.724Z,10.35
2022-10-31T04:06:43.961Z,9.95
2022-10-31T04:11:50.954Z,12.60
2022-10-31T04:16:53.737Z,9.02
2022-10-31T04:21:57.738Z,14.20
2022-10-31T04:27:00.312Z,8.13
2022-10-31T04:32:02.851Z,10.15
2022-10-31T04:37:06.833Z,13.90
2022-10-31T04:42:09.456Z,8.80
2022-10-31T04:47:12.045Z,9.07
2022-10-31T04:52:16.077Z,8.80
2022-10-31T04:57:18.682Z,7.95
2022-10-31T05:02:21.496Z,11.50
2022-10-31T05:07:25.510Z,11.77
2022-10-31T05:12:28.186Z,11.35
2022-10-31T05:17:30.830Z,7.50
2022-10-31T05:22:34.837Z,10.40
2022-10-31T05:27:40.853Z,9.10
2022-10-31T05:32:44.986Z,9.32
2022-10-31T05:37:49.073Z,11.63
2022-10-31T05:42:53.985Z,8.52
2022-10-31T05:47:58.299Z,10.50
2022-10-31T05:58:05.892Z,10.32
2022-10-31T06:03:10.933Z,8.35
2022-10-31T06:08:15.156Z,9.43
2022-10-31T06:13:18.076Z,12.50
2022-10-31T06:18:20.681Z,10.32
2022-10-31T06:23:24.670Z,9.02
2022-10-31T06:28:27.277Z,10.25
2022-10-31T06:33:30.057Z,10.27
2022-10-31T06:38:34.204Z,10.30
2022-10-31T06:43:36.874Z,8.15
2022-10-31T06:48:39.642Z,11.02
2022-10-31T06:53:43.688Z,11.55
2022-10-31T06:58:46.560Z,8.52
2022-10-31T07:03:49.261Z,14.43
2022-10-31T07:08:53.436Z,12.60
2022-10-31T07:13:56.140Z,8.45
2022-10-31T07:18:59.035Z,14.80
2022-10-31T07:24:03.311Z,13.10
2022-10-31T07:29:08.461Z,12.10
2022-10-31T07:34:18.094Z,11.75
2022-10-31T07:39:26.372Z,18.85
2022-10-31T07:44:29.058Z,12.30
2022-10-31T07:49:31.700Z,13.40
2022-10-31T07:54:35.833Z,14.20
2022-10-31T07:59:38.537Z,13.68
2022-10-31T08:04:41.217Z,11.25
2022-10-31T08:09:45.399Z,13.07
2022-10-31T08:14:48.149Z,11.85
2022-10-31T08:19:50.817Z,12.40
2022-10-31T08:24:54.962Z,11.07
2022-10-31T08:29:57.631Z,16.75
2022-10-31T08:35:00.237Z,11.52
2022-10-31T08:40:04.835Z,12.80
2022-10-31T08:45:08.037Z,30.08
2022-10-31T08:50:11.061Z,18.40
2022-10-31T08:55:15.181Z,15.88
2022-10-31T09:00:18.172Z,12.63
2022-10-31T09:05:20.852Z,6.88
2022-10-31T09:10:25.574Z,14.07
2022-10-31T09:15:29.563Z,12.10
2022-10-31T09:20:33.463Z,10.65
2022-10-31T09:25:38.082Z,10.57
2022-10-31T09:30:41.160Z,13.68
2022-10-31T09:35:44.042Z,14.43
2022-10-31T09:40:50.063Z,14.80
2022-10-31T09:46:02.883Z,26.92
2022-10-31T09:51:09.563Z,26.42
2022-10-31T09:56:16.758Z,25.70
2022-10-31T10:01:32.561Z,28.52
2022-10-31T10:06:39.047Z,30.05
2022-10-31T10:11:55.069Z,26.80
2022-10-31T10:17:12.080Z,28.55
2022-10-31T10:22:20.461Z,22.98
2022-10-31T10:27:30.198Z,24.50
2022-10-31T10:32:43.906Z,32.10
2022-10-31T10:37:51.262Z,32.50
2022-10-31T10:43:23.140Z,33.72
2022-10-31T10:48:44.076Z,31.50
2022-10-31T10:54:10.314Z,34.85
2022-10-31T10:59:18.629Z,35.13
2022-10-31T11:04:30.205Z,38.58
2022-10-31T11:09:35.092Z,37.17
2022-10-31T11:14:47.265Z,38.95
2022-10-31T11:19:50.197Z,36.05
2022-10-31T11:24:53.117Z,42.58
2022-10-31T11:30:06.631Z,34.20
2022-10-31T11:35:18.992Z,37.28
2022-10-31T11:40:24.086Z,45.35
2022-10-31T11:45:34.667Z,37.05
2022-10-31T11:50:41.287Z,34.92
2022-10-31T11:55:44.059Z,38.28
2022-10-31T12:00:51.764Z,44.17
2022-10-31T12:06:01.144Z,41.08
2022-10-31T12:11:13.324Z,39.17
2022-10-31T12:16:22.328Z,49.30
2022-10-31T12:21:51.587Z,40.15
2022-10-31T12:27:03.516Z,38.05
2022-10-31T12:32:22.637Z,40.50
2022-10-31T12:37:42.168Z,35.63
2022-10-31T12:43:05.805Z,41.20
2022-10-31T12:48:30.343Z,35.03
2022-10-31T12:53:45.665Z,38.17
2022-10-31T12:58:53.730Z,40.17
2022-10-31T13:04:03.340Z,41.63
2022-10-31T13:09:11.075Z,35.92
2022-10-31T13:14:23.202Z,39.05
2022-10-31T13:19:32.319Z,44.15
2022-10-31T13:24:38.610Z,41.67
2022-10-31T13:29:48.332Z,40.33
2022-10-31T13:34:57.757Z,41.45
2022-10-31T13:40:14.036Z,38.70
2022-10-31T13:45:19.103Z,40.70
2022-10-31T13:50:25.669Z,35.65
2022-10-31T13:55:38.620Z,43.70
2022-10-31T14:00:41.365Z,44.53
2022-10-31T14:05:55.401Z,49.58
2022-10-31T14:10:58.541Z,46.83
2022-10-31T14:16:05.869Z,47.03
2022-10-31T14:21:29.214Z,42.45
2022-10-31T14:26:35.373Z,44.78
2022-10-31T14:31:40.163Z,45.53
2022-10-31T14:36:55.808Z,43.42
2022-10-31T14:42:12.877Z,43.10
2022-10-31T14:47:24.080Z,45.38
2022-10-31T14:52:29.862Z,48.38
2022-10-31T14:57:39.510Z,50.10
2022-10-31T15:02:51.222Z,42.28
2022-10-31T15:07:56.955Z,41.53
2022-10-31T15:13:11.478Z,42.47
2022-10-31T15:18:18.268Z,41.35
2022-10-31T15:23:27.871Z,48.95
2022-10-31T15:28:32.371Z,41.60
2022-10-31T15:33:48.157Z,44.20
2022-10-31T15:38:52.661Z,40.55
2022-10-31T15:43:56.493Z,42.33
2022-10-31T15:48:59.861Z,46.25
2022-10-31T15:54:03.933Z,43.60
2022-10-31T15:59:06.737Z,44.83
2022-10-31T16:04:23.839Z,51.47
2022-10-31T16:09:28.213Z,42.67
2022-10-31T16:14:42.292Z,50.47
2022-10-31T16:19:53.083Z,44.92
2022-10-31T16:25:05.173Z,46.92
2022-10-31T16:30:30.489Z,45.17
2022-10-31T16:35:35.837Z,45.50
2022-10-31T16:40:41.171Z,44.55
2022-10-31T16:45:46.575Z,46.60
2022-10-31T16:50:50.010Z,48.05
2022-10-31T16:55:58.679Z,57.67
2022-10-31T17:01:03.041Z,53.10
2022-10-31T17:11:15.290Z,63.33
2022-10-31T17:16:17.982Z,64.65
2022-10-31T17:21:23.880Z,66.03
2022-10-31T17:26:28.265Z,54.30
2022-10-31T17:36:35.427Z,57.65
2022-10-31T17:41:39.503Z,63.97
2022-10-31T17:46:42.110Z,62.25
2022-10-31T17:51:44.717Z,59.38
2022-10-31T17:56:48.687Z,59.10
2022-10-31T18:01:51.463Z,56.00
2022-10-31T18:06:54.259Z,59.25
2022-10-31T18:11:58.389Z,58.88
2022-10-31T18:17:01.038Z,56.97
2022-10-31T18:22:03.752Z,55.55
2022-10-31T18:27:08.040Z,55.47
2022-10-31T18:32:10.692Z,39.22
2022-10-31T18:37:13.406Z,55.72
2022-10-31T18:42:17.517Z,51.53
2022-10-31T18:47:23.198Z,54.55
2022-10-31T18:52:25.804Z,50.47
2022-10-31T18:57:29.997Z,54.13
2022-10-31T19:02:33.056Z,51.35
2022-10-31T19:07:36.638Z,51.58
2022-10-31T19:12:40.573Z,54.70
2022-10-31T19:17:43.265Z,55.15
2022-10-31T19:22:46.003Z,51.70
2022-10-31T19:27:50.053Z,49.60
2022-10-31T19:32:55.765Z,52.40
2022-10-31T19:37:58.830Z,45.65
2022-10-31T19:43:03.032Z,55.97
2022-10-31T19:48:06.134Z,51.63
2022-10-31T19:53:09.503Z,54.85
2022-10-31T19:58:14.142Z,51.97
2022-10-31T20:03:19.913Z,56.90
2022-10-31T20:08:25.033Z,49.25
2022-10-31T20:13:29.993Z,53.53
2022-10-31T20:18:32.902Z,58.58
2022-10-31T20:23:36.636Z,55.25
2022-10-31T20:28:43.226Z,52.50
2022-10-31T20:33:46.306Z,54.05
2022-10-31T20:38:48.920Z,59.72
2022-10-31T20:43:53.497Z,82.95
2022-10-31T20:48:56.131Z,98.60
2022-10-31T20:54:00.582Z,103.97
2022-10-31T21:04:09.769Z,102.30
2022-10-31T21:09:12.489Z,110.97
2022-10-31T21:14:16.500Z,98.25
2022-10-31T21:19:19.139Z,82.20
2022-10-31T21:24:22.324Z,92.95
2022-10-31T21:29:26.281Z,88.18
2022-10-31T21:34:28.884Z,86.70
2022-10-31T21:39:31.431Z,95.28
2022-10-31T21:44:35.464Z,90.88
2022-10-31T21:49:38.076Z,85.70
2022-10-31T21:54:40.675Z,98.30
2022-10-31T21:59:48.360Z,110.20
2022-10-31T22:04:51.418Z,104.75
2022-10-31T22:09:54.011Z,88.70
2022-10-31T22:14:57.972Z,95.43
2022-10-31T22:20:00.581Z,95.53
2022-10-31T22:25:03.147Z,87.63
2022-10-31T22:30:08.530Z,90.95
2022-10-31T22:35:11.165Z,99.53
2022-10-31T22:40:13.831Z,96.93
2022-10-31T22:45:18.062Z,90.68
2022-10-31T22:50:20.733Z,87.93
2022-10-31T22:55:23.399Z,91.95
2022-10-31T23:00:27.387Z,89.88
2022-10-31T23:05:29.998Z,83.82
2022-10-31T23:10:34.196Z,89.25
2022-10-31T23:15:39.185Z,84.30
2022-10-31T23:20:41.772Z,86.53
2022-10-31T23:26:02.739Z,88.25
2022-10-31T23:31:06.828Z,91.50
2022-10-31T23:36:09.879Z,65.15
2022-10-31T23:41:12.497Z,64.57
2022-10-31T23:46:16.509Z,70.15
2022-10-31T23:51:19.111Z,83.47
2022-10-31T23:56:21.802Z,86.75
